sensor_id;sensor_type;location;lat;lon;timestamp;pressure;altitude;pressure_sealevel;temperature;humidity
75697;BME280;64312;44.738;20.612;2023-04-25T00:01:04;99311.06;;;14.12;72.89
75697;BME280;64312;44.738;20.612;2023-04-25T00:03:31;99318.34;;;14.23;73.52
75697;BME280;64312;44.738;20.612;2023-04-25T00:05:58;99250.34;;;13.79;73.56
75697;BME280;64312;44.738;20.612;2023-04-25T00:08:28;99315.75;;;14.17;72.93
75697;BME280;64312;44.738;20.612;2023-04-25T00:10:54;99321.66;;;14.02;72.77
75697;BME280;64312;44.738;20.612;2023-04-25T00:13:20;99308.53;;;13.94;74.00
75697;BME280;64312;44.738;20.612;2023-04-25T00:15:46;99291.13;;;13.78;74.12
75697;BME280;64312;44.738;20.612;2023-04-25T00:18:14;99256.03;;;13.43;74.42
75697;BME280;64312;44.738;20.612;2023-04-25T00:20:40;99266.13;;;13.47;74.91
75697;BME280;64312;44.738;20.612;2023-04-25T00:23:09;99319.59;;;13.69;75.03
75697;BME280;64312;44.738;20.612;2023-04-25T00:25:35;99271.88;;;13.51;74.76
75697;BME280;64312;44.738;20.612;2023-04-25T00:28:01;99248.97;;;13.30;74.45
75697;BME280;64312;44.738;20.612;2023-04-25T00:30:26;99302.69;;;13.62;75.17
75697;BME280;64312;44.738;20.612;2023-04-25T00:32:52;99287.88;;;13.52;74.78
75697;BME280;64312;44.738;20.612;2023-04-25T00:35:18;99320.66;;;13.68;75.05
75697;BME280;64312;44.738;20.612;2023-04-25T00:37:44;99273.63;;;13.57;74.14
75697;BME280;64312;44.738;20.612;2023-04-25T00:40:10;99246.72;;;13.39;74.77
75697;BME280;64312;44.738;20.612;2023-04-25T00:42:37;99277.66;;;13.54;74.08
75697;BME280;64312;44.738;20.612;2023-04-25T00:45:05;99298.91;;;13.63;74.69
75697;BME280;64312;44.738;20.612;2023-04-25T00:47:32;99129.50;;;12.69;74.22
75697;BME280;64312;44.738;20.612;2023-04-25T00:49:58;99106.25;;;12.57;74.28
75697;BME280;64312;44.738;20.612;2023-04-25T00:52:24;99279.53;;;13.66;75.09
75697;BME280;64312;44.738;20.612;2023-04-25T00:54:49;99130.22;;;12.77;74.65
75697;BME280;64312;44.738;20.612;2023-04-25T00:57:15;99327.47;;;13.82;74.46
75697;BME280;64312;44.738;20.612;2023-04-25T00:59:45;99219.94;;;13.37;74.37
75697;BME280;64312;44.738;20.612;2023-04-25T01:02:12;99299.72;;;13.87;74.31
75697;BME280;64312;44.738;20.612;2023-04-25T01:04:38;99271.28;;;13.61;74.31
75697;BME280;64312;44.738;20.612;2023-04-25T01:07:04;99312.88;;;13.83;74.73
75697;BME280;64312;44.738;20.612;2023-04-25T01:09:30;99298.41;;;13.77;74.48
75697;BME280;64312;44.738;20.612;2023-04-25T01:11:57;99293.13;;;13.71;75.23
75697;BME280;64312;44.738;20.612;2023-04-25T01:14:23;99265.31;;;13.47;74.98
75697;BME280;64312;44.738;20.612;2023-04-25T01:16:49;99286.47;;;13.50;75.27
75697;BME280;64312;44.738;20.612;2023-04-25T01:19:16;99279.78;;;13.52;74.85
75697;BME280;64312;44.738;20.612;2023-04-25T01:21:45;99260.63;;;13.42;75.64
75697;BME280;64312;44.738;20.612;2023-04-25T01:24:12;99299.50;;;13.65;74.98
75697;BME280;64312;44.738;20.612;2023-04-25T01:26:38;99291.63;;;13.51;75.45
75697;BME280;64312;44.738;20.612;2023-04-25T01:29:07;99270.59;;;13.53;75.67
75697;BME280;64312;44.738;20.612;2023-04-25T01:31:34;99285.63;;;13.61;75.06
75697;BME280;64312;44.738;20.612;2023-04-25T01:34:00;99277.53;;;13.61;75.03
75697;BME280;64312;44.738;20.612;2023-04-25T01:36:28;99286.34;;;13.57;75.65
75697;BME280;64312;44.738;20.612;2023-04-25T01:38:54;99317.25;;;13.72;75.96
75697;BME280;64312;44.738;20.612;2023-04-25T01:41:21;99272.13;;;13.49;76.48
75697;BME280;64312;44.738;20.612;2023-04-25T01:43:48;99270.47;;;13.48;77.63
75697;BME280;64312;44.738;20.612;2023-04-25T01:46:14;99296.69;;;13.48;78.96
75697;BME280;64312;44.738;20.612;2023-04-25T01:48:40;99301.63;;;13.51;79.49
75697;BME280;64312;44.738;20.612;2023-04-25T01:51:06;99303.47;;;13.15;79.59
75697;BME280;64312;44.738;20.612;2023-04-25T01:53:32;99269.03;;;13.11;80.33
75697;BME280;64312;44.738;20.612;2023-04-25T01:55:59;99279.59;;;13.00;80.61
75697;BME280;64312;44.738;20.612;2023-04-25T01:58:28;99133.88;;;12.17;81.09
75697;BME280;64312;44.738;20.612;2023-04-25T02:01:10;99134.13;;;12.15;80.87
75697;BME280;64312;44.738;20.612;2023-04-25T02:03:43;99291.94;;;12.96;81.52
75697;BME280;64312;44.738;20.612;2023-04-25T02:06:20;99289.72;;;13.05;81.82
75697;BME280;64312;44.738;20.612;2023-04-25T02:08:46;99102.41;;;11.87;82.11
75697;BME280;64312;44.738;20.612;2023-04-25T02:11:13;99318.75;;;13.10;81.88
75697;BME280;64312;44.738;20.612;2023-04-25T02:13:45;99285.34;;;12.92;82.25
75697;BME280;64312;44.738;20.612;2023-04-25T02:16:22;99293.34;;;12.99;82.79
75697;BME280;64312;44.738;20.612;2023-04-25T02:18:48;99261.47;;;12.78;83.08
75697;BME280;64312;44.738;20.612;2023-04-25T02:21:14;99270.16;;;12.80;82.87
75697;BME280;64312;44.738;20.612;2023-04-25T02:23:42;99335.50;;;13.00;83.15
75697;BME280;64312;44.738;20.612;2023-04-25T02:26:07;99296.41;;;13.02;83.64
75697;BME280;64312;44.738;20.612;2023-04-25T02:28:34;99084.84;;;11.78;83.58
75697;BME280;64312;44.738;20.612;2023-04-25T02:31:03;99287.22;;;12.92;83.86
75697;BME280;64312;44.738;20.612;2023-04-25T02:33:29;99308.28;;;13.01;84.76
75697;BME280;64312;44.738;20.612;2023-04-25T02:35:56;99144.44;;;12.07;85.16
75697;BME280;64312;44.738;20.612;2023-04-25T02:38:22;99265.56;;;12.68;85.37
75697;BME280;64312;44.738;20.612;2023-04-25T02:40:48;99276.69;;;12.60;87.05
75697;BME280;64312;44.738;20.612;2023-04-25T02:43:13;99298.47;;;12.77;87.71
75697;BME280;64312;44.738;20.612;2023-04-25T02:45:39;99087.81;;;11.47;87.90
75697;BME280;64312;44.738;20.612;2023-04-25T02:48:05;99160.28;;;11.85;89.02
75697;BME280;64312;44.738;20.612;2023-04-25T02:50:31;99293.75;;;12.31;93.25
75697;BME280;64312;44.738;20.612;2023-04-25T02:52:57;99278.66;;;12.23;93.10
75697;BME280;64312;44.738;20.612;2023-04-25T02:55:27;99289.47;;;12.23;94.54
75697;BME280;64312;44.738;20.612;2023-04-25T02:57:53;99254.59;;;11.73;94.86
75697;BME280;64312;44.738;20.612;2023-04-25T03:00:32;99305.00;;;12.09;95.03
75697;BME280;64312;44.738;20.612;2023-04-25T03:02:58;99256.81;;;11.76;95.59
75697;BME280;64312;44.738;20.612;2023-04-25T03:05:24;99288.81;;;11.91;98.51
75697;BME280;64312;44.738;20.612;2023-04-25T03:07:50;99299.53;;;11.98;98.46
75697;BME280;64312;44.738;20.612;2023-04-25T03:10:15;99284.59;;;11.77;98.41
75697;BME280;64312;44.738;20.612;2023-04-25T03:12:41;99280.22;;;11.82;98.10
75697;BME280;64312;44.738;20.612;2023-04-25T03:15:07;99261.25;;;11.71;97.94
75697;BME280;64312;44.738;20.612;2023-04-25T03:17:33;99239.91;;;11.51;97.97
75697;BME280;64312;44.738;20.612;2023-04-25T03:19:59;99284.78;;;11.82;97.51
75697;BME280;64312;44.738;20.612;2023-04-25T03:22:25;99081.81;;;10.53;97.25
75697;BME280;64312;44.738;20.612;2023-04-25T03:24:50;99276.97;;;12.70;92.12
75697;BME280;64312;44.738;20.612;2023-04-25T03:27:17;99292.03;;;12.18;94.60
75697;BME280;64312;44.738;20.612;2023-04-25T03:29:43;99291.75;;;12.08;95.05
75697;BME280;64312;44.738;20.612;2023-04-25T03:32:09;99293.31;;;12.15;94.07
75697;BME280;64312;44.738;20.612;2023-04-25T03:34:34;99286.50;;;11.95;93.71
75697;BME280;64312;44.738;20.612;2023-04-25T03:37:01;99269.75;;;11.92;93.60
75697;BME280;64312;44.738;20.612;2023-04-25T03:39:28;99067.72;;;10.57;94.90
75697;BME280;64312;44.738;20.612;2023-04-25T03:41:55;99069.78;;;10.55;94.08
75697;BME280;64312;44.738;20.612;2023-04-25T03:44:20;99108.47;;;10.79;94.00
75697;BME280;64312;44.738;20.612;2023-04-25T03:46:46;99287.81;;;11.92;94.01
75697;BME280;64312;44.738;20.612;2023-04-25T03:49:13;99051.91;;;10.43;93.65
75697;BME280;64312;44.738;20.612;2023-04-25T03:52:01;99226.44;;;11.51;93.83
75697;BME280;64312;44.738;20.612;2023-04-25T03:54:32;99240.81;;;11.63;94.48
75697;BME280;64312;44.738;20.612;2023-04-25T03:57:10;99287.84;;;12.04;94.39
75697;BME280;64312;44.738;20.612;2023-04-25T03:59:38;99294.06;;;12.04;93.70
75697;BME280;64312;44.738;20.612;2023-04-25T04:02:04;99304.56;;;12.12;93.45
75697;BME280;64312;44.738;20.612;2023-04-25T04:04:32;99288.59;;;12.11;93.00
75697;BME280;64312;44.738;20.612;2023-04-25T04:06:59;99265.38;;;11.73;92.91
75697;BME280;64312;44.738;20.612;2023-04-25T04:09:27;99052.81;;;10.55;92.91
75697;BME280;64312;44.738;20.612;2023-04-25T04:11:54;99301.22;;;11.99;92.87
75697;BME280;64312;44.738;20.612;2023-04-25T04:14:20;99286.06;;;11.79;92.66
75697;BME280;64312;44.738;20.612;2023-04-25T04:16:47;99306.44;;;11.93;92.98
75697;BME280;64312;44.738;20.612;2023-04-25T04:19:14;99259.44;;;11.64;92.61
75697;BME280;64312;44.738;20.612;2023-04-25T04:21:44;99293.31;;;11.79;93.64
75697;BME280;64312;44.738;20.612;2023-04-25T04:24:10;99146.75;;;10.81;93.61
75697;BME280;64312;44.738;20.612;2023-04-25T04:26:47;99260.22;;;11.53;94.01
75697;BME280;64312;44.738;20.612;2023-04-25T04:29:33;99177.16;;;11.07;93.94
75697;BME280;64312;44.738;20.612;2023-04-25T04:32:28;99305.91;;;11.85;94.19
75697;BME280;64312;44.738;20.612;2023-04-25T04:34:56;99320.06;;;11.80;94.21
75697;BME280;64312;44.738;20.612;2023-04-25T04:37:23;99286.94;;;11.73;94.38
75697;BME280;64312;44.738;20.612;2023-04-25T04:39:50;99322.72;;;12.05;93.98
75697;BME280;64312;44.738;20.612;2023-04-25T04:42:33;99305.16;;;12.14;94.00
75697;BME280;64312;44.738;20.612;2023-04-25T04:45:17;99283.22;;;12.11;93.55
75697;BME280;64312;44.738;20.612;2023-04-25T04:48:05;99120.31;;;11.15;93.68
75697;BME280;64312;44.738;20.612;2023-04-25T04:50:44;99286.41;;;12.19;93.76
75697;BME280;64312;44.738;20.612;2023-04-25T04:53:44;99187.94;;;11.44;93.67
75697;BME280;64312;44.738;20.612;2023-04-25T04:56:29;99290.25;;;12.12;93.10
75697;BME280;64312;44.738;20.612;2023-04-25T04:59:18;99308.03;;;12.50;93.23
75697;BME280;64312;44.738;20.612;2023-04-25T05:02:03;99310.44;;;12.39;92.69
75697;BME280;64312;44.738;20.612;2023-04-25T05:04:48;99327.31;;;12.35;93.03
75697;BME280;64312;44.738;20.612;2023-04-25T05:07:29;99114.19;;;11.08;93.50
75697;BME280;64312;44.738;20.612;2023-04-25T05:10:18;99291.56;;;12.21;93.05
75697;BME280;64312;44.738;20.612;2023-04-25T05:13:19;99293.38;;;12.27;92.94
75697;BME280;64312;44.738;20.612;2023-04-25T05:16:12;99316.75;;;12.33;93.78
75697;BME280;64312;44.738;20.612;2023-04-25T05:19:13;99294.56;;;12.31;93.74
75697;BME280;64312;44.738;20.612;2023-04-25T05:21:57;99311.97;;;12.47;93.79
75697;BME280;64312;44.738;20.612;2023-04-25T05:24:38;99261.75;;;12.16;93.67
75697;BME280;64312;44.738;20.612;2023-04-25T05:27:17;99325.97;;;12.56;92.90
75697;BME280;64312;44.738;20.612;2023-04-25T05:30:02;99357.88;;;12.47;92.91
75697;BME280;64312;44.738;20.612;2023-04-25T05:32:46;99327.31;;;12.35;94.95
75697;BME280;64312;44.738;20.612;2023-04-25T05:35:13;99324.63;;;12.16;93.41
75697;BME280;64312;44.738;20.612;2023-04-25T05:37:43;99160.78;;;11.08;93.06
75697;BME280;64312;44.738;20.612;2023-04-25T05:40:11;99197.06;;;11.06;93.26
75697;BME280;64312;44.738;20.612;2023-04-25T05:42:43;99335.41;;;11.80;93.45
75697;BME280;64312;44.738;20.612;2023-04-25T05:45:27;99351.97;;;11.83;92.43
75697;BME280;64312;44.738;20.612;2023-04-25T05:48:10;99324.91;;;11.53;92.53
75697;BME280;64312;44.738;20.612;2023-04-25T05:50:42;99353.72;;;11.53;92.98
75697;BME280;64312;44.738;20.612;2023-04-25T05:53:34;99391.13;;;11.43;93.07
75697;BME280;64312;44.738;20.612;2023-04-25T05:56:01;99181.47;;;10.08;92.86
75697;BME280;64312;44.738;20.612;2023-04-25T05:58:28;99378.81;;;10.97;93.84
75697;BME280;64312;44.738;20.612;2023-04-25T06:00:55;99357.94;;;10.92;93.92
75697;BME280;64312;44.738;20.612;2023-04-25T06:03:21;99414.09;;;10.89;94.78
75697;BME280;64312;44.738;20.612;2023-04-25T06:05:49;99370.13;;;10.63;95.14
75697;BME280;64312;44.738;20.612;2023-04-25T06:08:14;99363.75;;;10.57;96.24
75697;BME280;64312;44.738;20.612;2023-04-25T06:10:40;99414.28;;;10.87;100.00
75697;BME280;64312;44.738;20.612;2023-04-25T06:13:05;99201.53;;;9.67;100.00
75697;BME280;64312;44.738;20.612;2023-04-25T06:15:34;99397.22;;;11.00;96.56
75697;BME280;64312;44.738;20.612;2023-04-25T06:18:00;99274.75;;;10.08;96.29
75697;BME280;64312;44.738;20.612;2023-04-25T06:20:26;99420.88;;;10.98;96.31
75697;BME280;64312;44.738;20.612;2023-04-25T06:22:54;99426.03;;;10.99;95.57
75697;BME280;64312;44.738;20.612;2023-04-25T06:25:27;99423.88;;;11.39;95.71
75697;BME280;64312;44.738;20.612;2023-04-25T06:27:54;99420.84;;;11.86;89.97
75697;BME280;64312;44.738;20.612;2023-04-25T06:30:20;99276.16;;;10.87;88.05
75697;BME280;64312;44.738;20.612;2023-04-25T06:32:52;99439.81;;;11.73;87.95
75697;BME280;64312;44.738;20.612;2023-04-25T06:35:19;99428.03;;;11.67;87.85
75697;BME280;64312;44.738;20.612;2023-04-25T06:37:45;99443.94;;;11.75;87.40
75697;BME280;64312;44.738;20.612;2023-04-25T06:40:10;99239.63;;;10.41;87.44
75697;BME280;64312;44.738;20.612;2023-04-25T06:42:36;99481.44;;;11.52;87.31
75697;BME280;64312;44.738;20.612;2023-04-25T06:45:22;99430.25;;;11.20;88.00
75697;BME280;64312;44.738;20.612;2023-04-25T06:47:48;99442.25;;;11.24;87.55
75697;BME280;64312;44.738;20.612;2023-04-25T06:50:13;99460.31;;;11.49;87.92
75697;BME280;64312;44.738;20.612;2023-04-25T06:52:39;99455.25;;;11.59;87.03
75697;BME280;64312;44.738;20.612;2023-04-25T06:55:05;99486.41;;;11.55;89.09
75697;BME280;64312;44.738;20.612;2023-04-25T06:57:50;99468.00;;;11.45;87.60
75697;BME280;64312;44.738;20.612;2023-04-25T07:00:36;99479.19;;;11.49;87.29
75697;BME280;64312;44.738;20.612;2023-04-25T07:03:02;99458.78;;;11.34;87.36
75697;BME280;64312;44.738;20.612;2023-04-25T07:05:27;99323.38;;;10.57;87.23
75697;BME280;64312;44.738;20.612;2023-04-25T07:07:53;99472.06;;;11.61;86.76
75697;BME280;64312;44.738;20.612;2023-04-25T07:10:19;99488.03;;;11.56;86.53
75697;BME280;64312;44.738;20.612;2023-04-25T07:12:47;99492.88;;;11.79;85.50
75697;BME280;64312;44.738;20.612;2023-04-25T07:15:12;99492.00;;;11.78;85.92
75697;BME280;64312;44.738;20.612;2023-04-25T07:17:42;99208.06;;;9.85;85.92
75697;BME280;64312;44.738;20.612;2023-04-25T07:20:08;99270.34;;;10.26;86.36
75697;BME280;64312;44.738;20.612;2023-04-25T07:22:35;99488.28;;;11.54;86.88
75697;BME280;64312;44.738;20.612;2023-04-25T07:25:02;99465.53;;;11.44;86.90
75697;BME280;64312;44.738;20.612;2023-04-25T07:27:28;99416.16;;;11.18;86.53
75697;BME280;64312;44.738;20.612;2023-04-25T07:29:59;99416.72;;;11.27;86.63
75697;BME280;64312;44.738;20.612;2023-04-25T07:32:25;99472.84;;;11.36;86.51
75697;BME280;64312;44.738;20.612;2023-04-25T07:34:51;99471.28;;;11.54;86.57
75697;BME280;64312;44.738;20.612;2023-04-25T07:37:17;99223.19;;;10.24;85.99
75697;BME280;64312;44.738;20.612;2023-04-25T07:39:57;99506.56;;;12.02;85.19
75697;BME280;64312;44.738;20.612;2023-04-25T07:42:23;99326.66;;;10.91;84.69
75697;BME280;64312;44.738;20.612;2023-04-25T07:44:48;99473.84;;;11.99;84.46
75697;BME280;64312;44.738;20.612;2023-04-25T07:47:14;99480.28;;;12.16;84.99
75697;BME280;64312;44.738;20.612;2023-04-25T07:49:41;99277.03;;;11.05;84.85
75697;BME280;64312;44.738;20.612;2023-04-25T07:52:07;99478.81;;;12.20;84.41
75697;BME280;64312;44.738;20.612;2023-04-25T07:54:34;99530.78;;;12.34;83.96
75697;BME280;64312;44.738;20.612;2023-04-25T07:57:06;99519.91;;;12.40;83.91
75697;BME280;64312;44.738;20.612;2023-04-25T07:59:33;99324.06;;;11.53;83.50
75697;BME280;64312;44.738;20.612;2023-04-25T08:02:00;99294.47;;;11.46;83.72
75697;BME280;64312;44.738;20.612;2023-04-25T08:04:26;99506.13;;;12.85;83.83
75697;BME280;64312;44.738;20.612;2023-04-25T08:06:56;99466.38;;;12.56;83.35
75697;BME280;64312;44.738;20.612;2023-04-25T08:09:26;99296.66;;;11.56;83.37
75697;BME280;64312;44.738;20.612;2023-04-25T08:11:52;99466.31;;;12.62;83.09
75697;BME280;64312;44.738;20.612;2023-04-25T08:14:24;99409.41;;;12.45;83.47
75697;BME280;64312;44.738;20.612;2023-04-25T08:16:50;99474.69;;;12.91;82.62
75697;BME280;64312;44.738;20.612;2023-04-25T08:19:17;99480.03;;;13.27;82.44
75697;BME280;64312;44.738;20.612;2023-04-25T08:21:44;99483.28;;;13.71;82.48
75697;BME280;64312;44.738;20.612;2023-04-25T08:24:14;99533.97;;;14.18;81.35
75697;BME280;64312;44.738;20.612;2023-04-25T08:26:40;99422.84;;;13.54;81.88
75697;BME280;64312;44.738;20.612;2023-04-25T08:29:08;99482.03;;;14.32;80.64
75697;BME280;64312;44.738;20.612;2023-04-25T08:31:37;99502.88;;;14.32;80.71
75697;BME280;64312;44.738;20.612;2023-04-25T08:34:04;99506.28;;;14.39;79.75
75697;BME280;64312;44.738;20.612;2023-04-25T08:36:33;99521.94;;;14.72;79.78
75697;BME280;64312;44.738;20.612;2023-04-25T08:38:59;99517.25;;;14.44;79.20
75697;BME280;64312;44.738;20.612;2023-04-25T08:41:26;99528.44;;;14.59;79.93
75697;BME280;64312;44.738;20.612;2023-04-25T08:43:53;99279.59;;;13.00;80.12
75697;BME280;64312;44.738;20.612;2023-04-25T08:46:19;99459.31;;;14.10;79.15
75697;BME280;64312;44.738;20.612;2023-04-25T08:49:05;99525.38;;;14.44;79.66
75697;BME280;64312;44.738;20.612;2023-04-25T08:51:32;99354.66;;;13.40;78.69
75697;BME280;64312;44.738;20.612;2023-04-25T08:54:09;99546.44;;;14.54;80.04
75697;BME280;64312;44.738;20.612;2023-04-25T08:56:38;99558.59;;;14.51;79.70
75697;BME280;64312;44.738;20.612;2023-04-25T08:59:04;99537.38;;;14.36;79.57
75697;BME280;64312;44.738;20.612;2023-04-25T09:01:30;99384.75;;;13.55;79.38
75697;BME280;64312;44.738;20.612;2023-04-25T09:03:57;99487.69;;;14.43;79.26
75697;BME280;64312;44.738;20.612;2023-04-25T09:06:23;99561.25;;;14.98;78.50
75697;BME280;64312;44.738;20.612;2023-04-25T09:08:50;99328.31;;;13.47;78.34
75697;BME280;64312;44.738;20.612;2023-04-25T09:11:18;99537.00;;;14.80;79.60
75697;BME280;64312;44.738;20.612;2023-04-25T09:13:43;99532.34;;;14.52;79.00
75697;BME280;64312;44.738;20.612;2023-04-25T09:16:21;99555.97;;;14.80;79.82
75697;BME280;64312;44.738;20.612;2023-04-25T09:19:25;99307.34;;;13.08;79.81
75697;BME280;64312;44.738;20.612;2023-04-25T09:22:01;99383.09;;;13.54;79.77
75697;BME280;64312;44.738;20.612;2023-04-25T09:26:59;99535.03;;;14.75;80.44
75697;BME280;64312;44.738;20.612;2023-04-25T09:29:34;99574.13;;;15.20;79.79
75697;BME280;64312;44.738;20.612;2023-04-25T09:32:20;99606.75;;;14.84;78.56
75697;BME280;64312;44.738;20.612;2023-04-25T09:34:49;99526.88;;;14.17;78.16
75697;BME280;64312;44.738;20.612;2023-04-25T09:37:22;99569.34;;;14.16;79.73
75697;BME280;64312;44.738;20.612;2023-04-25T09:40:07;99578.41;;;14.10;80.53
75697;BME280;64312;44.738;20.612;2023-04-25T09:42:45;99485.78;;;13.31;80.69
75697;BME280;64312;44.738;20.612;2023-04-25T09:45:12;99501.13;;;13.00;81.16
75697;BME280;64312;44.738;20.612;2023-04-25T09:47:40;99572.75;;;13.28;80.01
75697;BME280;64312;44.738;20.612;2023-04-25T09:50:15;99496.53;;;12.71;82.66
75697;BME280;64312;44.738;20.612;2023-04-25T09:52:44;99549.69;;;13.07;80.88
75697;BME280;64312;44.738;20.612;2023-04-25T09:55:15;99546.16;;;13.25;80.27
75697;BME280;64312;44.738;20.612;2023-04-25T09:57:44;99571.28;;;13.74;80.12
75697;BME280;64312;44.738;20.612;2023-04-25T10:00:14;99571.88;;;13.76;80.56
75697;BME280;64312;44.738;20.612;2023-04-25T10:02:42;99564.41;;;14.01;80.09
75697;BME280;64312;44.738;20.612;2023-04-25T10:05:11;99526.38;;;13.96;79.80
75697;BME280;64312;44.738;20.612;2023-04-25T10:07:39;99506.19;;;14.11;79.71
75697;BME280;64312;44.738;20.612;2023-04-25T10:10:14;99384.25;;;13.59;80.86
75697;BME280;64312;44.738;20.612;2023-04-25T10:12:39;99587.75;;;15.08;78.14
75697;BME280;64312;44.738;20.612;2023-04-25T10:15:06;99458.00;;;14.59;79.11
75697;BME280;64312;44.738;20.612;2023-04-25T10:17:35;99375.81;;;13.90;79.47
75697;BME280;64312;44.738;20.612;2023-04-25T10:20:02;99378.03;;;13.58;75.94
75697;BME280;64312;44.738;20.612;2023-04-25T10:22:37;99574.03;;;14.62;78.81
75697;BME280;64312;44.738;20.612;2023-04-25T10:25:03;99439.31;;;13.52;77.97
75697;BME280;64312;44.738;20.612;2023-04-25T10:27:30;99518.72;;;13.81;77.76
75697;BME280;64312;44.738;20.612;2023-04-25T10:30:13;99551.44;;;13.80;78.38
75697;BME280;64312;44.738;20.612;2023-04-25T10:32:44;99487.03;;;13.59;77.56
75697;BME280;64312;44.738;20.612;2023-04-25T10:35:14;99486.94;;;13.77;78.45
75697;BME280;64312;44.738;20.612;2023-04-25T10:40:23;99554.06;;;13.98;80.35
75697;BME280;64312;44.738;20.612;2023-04-25T10:42:48;99564.88;;;13.98;78.31
75697;BME280;64312;44.738;20.612;2023-04-25T10:45:14;99521.88;;;13.67;78.89
75697;BME280;64312;44.738;20.612;2023-04-25T10:47:43;99531.47;;;14.16;77.59
75697;BME280;64312;44.738;20.612;2023-04-25T10:50:14;99540.09;;;14.25;77.88
75697;BME280;64312;44.738;20.612;2023-04-25T10:52:41;99515.44;;;14.85;78.35
75697;BME280;64312;44.738;20.612;2023-04-25T10:55:07;99500.94;;;14.91;74.30
75697;BME280;64312;44.738;20.612;2023-04-25T10:57:40;99182.09;;;13.37;76.32
75697;BME280;64312;44.738;20.612;2023-04-25T11:02:44;99534.56;;;16.09;73.27
75697;BME280;64312;44.738;20.612;2023-04-25T11:07:54;99519.75;;;16.00;73.58
75697;BME280;64312;44.738;20.612;2023-04-25T11:10:25;99533.06;;;16.35;72.17
75697;BME280;64312;44.738;20.612;2023-04-25T11:12:51;99491.69;;;15.94;74.27
75697;BME280;64312;44.738;20.612;2023-04-25T11:15:17;99542.38;;;16.22;71.60
75697;BME280;64312;44.738;20.612;2023-04-25T11:17:42;99523.06;;;15.57;70.74
75697;BME280;64312;44.738;20.612;2023-04-25T11:20:10;99535.78;;;15.68;71.97
75697;BME280;64312;44.738;20.612;2023-04-25T11:22:40;99547.69;;;15.84;66.63
75697;BME280;64312;44.738;20.612;2023-04-25T11:25:10;99498.59;;;16.02;65.31
75697;BME280;64312;44.738;20.612;2023-04-25T11:27:53;99319.69;;;14.95;63.96
75697;BME280;64312;44.738;20.612;2023-04-25T11:30:20;99510.78;;;16.00;62.99
75697;BME280;64312;44.738;20.612;2023-04-25T11:32:47;99534.56;;;16.26;60.47
75697;BME280;64312;44.738;20.612;2023-04-25T11:35:13;99521.41;;;15.84;58.85
75697;BME280;64312;44.738;20.612;2023-04-25T11:37:39;99527.34;;;15.98;60.14
75697;BME280;64312;44.738;20.612;2023-04-25T11:40:07;99533.97;;;16.41;62.10
75697;BME280;64312;44.738;20.612;2023-04-25T11:42:34;99315.06;;;15.45;59.91
75697;BME280;64312;44.738;20.612;2023-04-25T11:45:00;99291.44;;;15.41;59.38
75697;BME280;64312;44.738;20.612;2023-04-25T11:47:32;99496.84;;;17.34;60.91
75697;BME280;64312;44.738;20.612;2023-04-25T11:49:59;99517.59;;;17.40;61.43
75697;BME280;64312;44.738;20.612;2023-04-25T11:52:44;99285.97;;;16.18;62.12
75697;BME280;64312;44.738;20.612;2023-04-25T11:55:15;99529.91;;;17.48;57.32
75697;BME280;64312;44.738;20.612;2023-04-25T11:57:43;99504.06;;;17.72;56.00
75697;BME280;64312;44.738;20.612;2023-04-25T12:00:12;99516.69;;;17.89;54.16
75697;BME280;64312;44.738;20.612;2023-04-25T12:02:47;99510.50;;;17.66;53.96
75697;BME280;64312;44.738;20.612;2023-04-25T12:05:14;99476.16;;;17.33;52.38
75697;BME280;64312;44.738;20.612;2023-04-25T12:07:43;99280.22;;;16.15;52.00
75697;BME280;64312;44.738;20.612;2023-04-25T12:10:14;99526.16;;;18.13;49.52
75697;BME280;64312;44.738;20.612;2023-04-25T12:12:45;99392.00;;;17.53;49.34
75697;BME280;64312;44.738;20.612;2023-04-25T12:15:40;99495.91;;;18.52;56.36
75697;BME280;64312;44.738;20.612;2023-04-25T12:18:06;99487.41;;;18.48;49.77
75697;BME280;64312;44.738;20.612;2023-04-25T12:20:31;99491.03;;;18.59;51.62
75697;BME280;64312;44.738;20.612;2023-04-25T12:22:57;99440.47;;;17.89;52.20
75697;BME280;64312;44.738;20.612;2023-04-25T12:25:36;99278.75;;;16.78;54.00
75697;BME280;64312;44.738;20.612;2023-04-25T12:28:18;99483.84;;;17.68;53.98
75697;BME280;64312;44.738;20.612;2023-04-25T12:30:59;99475.56;;;17.58;51.71
75697;BME280;64312;44.738;20.612;2023-04-25T12:33:28;99476.84;;;17.50;50.74
75697;BME280;64312;44.738;20.612;2023-04-25T12:35:54;99396.63;;;17.85;49.02
75697;BME280;64312;44.738;20.612;2023-04-25T12:38:31;99469.19;;;18.49;49.05
75697;BME280;64312;44.738;20.612;2023-04-25T12:40:57;99474.31;;;18.98;48.60
75697;BME280;64312;44.738;20.612;2023-04-25T12:43:24;99396.53;;;18.70;48.44
75697;BME280;64312;44.738;20.612;2023-04-25T12:45:50;99461.84;;;19.22;44.22
75697;BME280;64312;44.738;20.612;2023-04-25T12:48:17;99456.94;;;19.14;43.80
75697;BME280;64312;44.738;20.612;2023-04-25T12:50:43;99377.56;;;18.37;44.21
75697;BME280;64312;44.738;20.612;2023-04-25T12:53:10;99217.34;;;17.67;43.55
75697;BME280;64312;44.738;20.612;2023-04-25T12:55:37;99438.66;;;19.30;43.59
75697;BME280;64312;44.738;20.612;2023-04-25T12:58:03;99396.84;;;18.99;42.59
75697;BME280;64312;44.738;20.612;2023-04-25T13:00:29;99381.81;;;18.76;41.29
75697;BME280;64312;44.738;20.612;2023-04-25T13:02:55;99338.19;;;18.86;40.18
75697;BME280;64312;44.738;20.612;2023-04-25T13:05:21;99310.66;;;18.98;38.81
75697;BME280;64312;44.738;20.612;2023-04-25T13:07:47;99381.41;;;19.65;39.52
75697;BME280;64312;44.738;20.612;2023-04-25T13:10:13;99414.94;;;19.96;39.50
75697;BME280;64312;44.738;20.612;2023-04-25T13:12:38;99335.47;;;19.57;37.25
75697;BME280;64312;44.738;20.612;2023-04-25T13:15:05;99393.09;;;19.76;36.13